Etusivu
METAR-TAF:

METAR-TAF

Lentoasemat :

San José, Costa Rica

Leveyspiiri: 09-57N, Pituuspiiri: 084-09W, korkeus merenpinnasta: 994 m

Tämänhetkinen sää

Tämä raportti tehtiin 6 tuntia ja 13 minuuttia sitten, kello 00.00 UTC
Tuuli 7 kn lännestä
Lämpötila 24°C
Kosteus 69%
Ilmanpaine 1017 hPa
Näkyvyys 10 km tai enemmän
Hajanaisia pilviä 3500 ft:n korkeudessa
Hajonneita pilviä 14000 ft:n korkeudessa

METAR: MRPV 270000Z 27007KT 9999 SCT035 BKN140 24/18 A3003 NOSIG

Aika: 00:13 (06:13 UTC)

Sääennuste

Tämä raportti tehtiin 1 tunti ja 13 minuuttia sitten, kello 05.00 UTC
Ennuste voimassa 27. päivästä klo 06 UTC - 28. päivään klo 06 UTC
Tuuli 10 kn idästä
Näkyvyys 10 km tai enemmän
Muutamia pilviä 3500 ft:n korkeudessa
Ajoittain
27. päivästä klo 06 UTC - 27. päivään klo 17 UTC
Tuuli 3 kn eri suunnista

TAF: MRPV 270500Z 2706/2806 09010KT 9999 FEW035 TX28/2718Z TN17/2710Z TEMPO 2706/2717 VRB03KT

Säähavainnot ja -ennusteet yli 4000 lentoasemalta (METAR- ja TAF-raportit).

Käytössä olevat sääasemat on merkitty karttaan keltaisilla ja punaisilla pisteillä.

Aseta hiiri pisteen päälle nähdäksesi sääaseman nimen.

Klikkaa sitten nähdäksesi säähavainnot ja -ennusteet.

Kartan vaihtaminen: klikkaa mustalla rastilla varustettuja vihreitä pisteitä, niin voit zoomata sisään; viivalla varustettua vihreää pistettä, niin voit zoomata ulos tai vihreitä nuolia, niin pääset viereisille kartoille.


METAR-TAF: